New Iberia, Louisiana
Current Conditions -  °F | °C
As of 7:53 PM on Monday 20 Oct 2014 (Local Time) from KARA Reporting Station
Clear Clear  
Wind Chill: 67°   Ceiling: Unl
Heat Index: 67°   Visibility: 10mi
Dew Point: 58°   Wind: 6mph
Humidity: 73%   Direction: 10°N
Pressure: 30.02"   Gusts: NA
Location:  30.01°N, 91.82°W
Report Text: KARA 210053Z 01005KT 10SM CLR 19/14 A3002 RMK AO2 SLP165 T01940144
Loading
Personal Weather Stations






























Interactive Weather Map New forecast layout! Learn more

10-Day Weather Forecast

Advertisements
Track Severe Weather on mobile